Time;durP1;ratioP1;P1;durP2;ratioP2;P2;SDS_P1;SDS_P2;PMS_P1;PMS_P2;Temp;Humidity;BMP_temperature;BMP_pressure;BME280_temperature;BME280_humidity;BME280_pressure;Samples;Min_cycle;Max_cycle;Signal;HPM_P1;HPM_P2
2023/12/12 00:00:33;;;;;;;16.98;15.18;;;;;;;;;;5071836;28;20099;-52
2023/12/12 00:03:00;;;;;;;15.68;13.98;;;;;;;;;;5071766;28;20024;-54
2023/12/12 00:05:26;;;;;;;16.30;14.60;;;;;;;;;;5071712;28;20020;-50
2023/12/12 00:07:52;;;;;;;19.80;18.00;;;;;;;;;;5071284;28;20021;-52
2023/12/12 00:10:18;;;;;;;19.63;17.83;;;;;;;;;;5070355;28;20031;-51
2023/12/12 00:12:44;;;;;;;19.77;17.98;;;;;;;;;;5067480;28;20025;-49
2023/12/12 00:15:10;;;;;;;19.85;18.05;;;;;;;;;;5063262;28;20044;-54
2023/12/12 00:17:37;;;;;;;20.20;18.40;;;;;;;;;;5071620;28;20035;-49
2023/12/12 00:20:04;;;;;;;20.13;18.33;;;;;;;;;;5070968;28;20128;-57
2023/12/12 00:22:30;;;;;;;19.95;18.15;;;;;;;;;;5071201;28;20040;-54
2023/12/12 00:24:56;;;;;;;19.67;17.88;;;;;;;;;;5071311;28;20032;-54
2023/12/12 00:27:22;;;;;;;20.85;18.85;;;;;;;;;;5071329;28;20040;-53
2023/12/12 00:29:49;;;;;;;20.35;18.45;;;;;;;;;;5066396;28;20099;-54
2023/12/12 00:32:14;;;;;;;19.75;17.95;;;;;;;;;;5084439;23;20078;-64
2023/12/12 00:34:40;;;;;;;21.02;19.02;;;;;;;;;;5094291;28;20017;-64
2023/12/12 00:37:06;;;;;;;19.38;17.58;;;;;;;;;;5092060;28;20077;-61
2023/12/12 00:39:37;;;;;;;19.65;17.85;;;;;;;;;;5093007;28;20039;-62
2023/12/12 00:42:03;;;;;;;20.77;18.75;;;;;;;;;;5073914;28;20035;-63
2023/12/12 00:44:29;;;;;;;19.38;17.58;;;;;;;;;;5092838;28;20076;-63
2023/12/12 00:46:55;;;;;;;19.17;17.38;;;;;;;;;;5092445;28;20106;-61
2023/12/12 00:49:21;;;;;;;20.95;19.05;;;;;;;;;;5092437;28;20056;-63
2023/12/12 00:51:47;;;;;;;19.98;17.83;;;;;;;;;;5092465;28;20028;-62
2023/12/12 00:54:13;;;;;;;19.50;17.60;;;;;;;;;;5094040;28;20408;-62
2023/12/12 00:56:39;;;;;;;19.10;17.30;;;;;;;;;;5092983;28;20042;-63
2023/12/12 00:59:05;;;;;;;19.40;17.60;;;;;;;;;;5093015;28;20440;-63
2023/12/12 01:01:31;;;;;;;18.45;16.65;;;;;;;;;;5074546;28;20028;-60
2023/12/12 01:03:57;;;;;;;17.95;16.23;;;;;;;;;;5092918;28;20056;-62
2023/12/12 01:06:23;;;;;;;20.15;18.15;;;;;;;;;;5074452;28;20035;-61
2023/12/12 01:08:49;;;;;;;17.50;15.80;;;;;;;;;;5088198;28;20080;-61
2023/12/12 01:11:15;;;;;;;17.60;15.90;;;;;;;;;;5079822;28;20466;-61
2023/12/12 01:13:41;;;;;;;18.75;16.95;;;;;;;;;;5072267;28;20084;-60
2023/12/12 01:16:07;;;;;;;19.27;17.17;;;;;;;;;;5074043;28;20024;-63
2023/12/12 01:18:34;;;;;;;17.83;16.05;;;;;;;;;;5070181;28;20025;-62
2023/12/12 01:21:00;;;;;;;23.98;21.60;;;;;;;;;;5085611;28;20166;-63
2023/12/12 01:23:26;;;;;;;17.20;15.50;;;;;;;;;;5070667;28;20588;-63
2023/12/12 01:25:52;;;;;;;17.17;15.48;;;;;;;;;;5078743;28;20051;-63
2023/12/12 01:28:18;;;;;;;17.05;15.35;;;;;;;;;;5070589;28;20025;-62
2023/12/12 01:30:44;;;;;;;17.00;15.30;;;;;;;;;;5068232;28;20493;-62
2023/12/12 01:33:10;;;;;;;17.30;15.60;;;;;;;;;;5068419;28;20032;-62
2023/12/12 01:35:36;;;;;;;17.80;16.00;;;;;;;;;;5069980;28;20029;-62
2023/12/12 01:38:02;;;;;;;18.00;16.20;;;;;;;;;;5070458;28;20043;-63
2023/12/12 01:40:28;;;;;;;21.65;19.60;;;;;;;;;;5070065;28;20090;-62
2023/12/12 01:43:05;;;;;;;16.90;15.20;;;;;;;;;;5070181;28;20449;-61
2023/12/12 01:45:31;;;;;;;16.85;15.15;;;;;;;;;;5078819;28;20048;-62
2023/12/12 01:47:57;;;;;;;18.70;16.80;;;;;;;;;;5089972;28;20563;-61
2023/12/12 01:50:23;;;;;;;17.48;15.73;;;;;;;;;;5089749;28;20031;-63
2023/12/12 01:52:49;;;;;;;16.75;15.05;;;;;;;;;;5090029;28;20482;-63
2023/12/12 01:55:15;;;;;;;17.00;15.30;;;;;;;;;;5090439;28;20103;-64
2023/12/12 01:57:41;;;;;;;16.90;15.20;;;;;;;;;;5081978;28;20044;-63
2023/12/12 02:00:07;;;;;;;17.00;15.30;;;;;;;;;;5090516;28;20023;-63
2023/12/12 02:02:33;;;;;;;17.88;16.13;;;;;;;;;;5090210;28;20077;-63
2023/12/12 02:04:59;;;;;;;17.45;15.50;;;;;;;;;;5090702;28;20032;-62
2023/12/12 02:07:27;;;;;;;17.15;15.45;;;;;;;;;;5090101;28;20032;-62
2023/12/12 02:09:53;;;;;;;17.15;15.45;;;;;;;;;;5069902;28;20084;-62
2023/12/12 02:12:20;;;;;;;20.35;18.27;;;;;;;;;;5069528;28;20538;-63
2023/12/12 02:14:46;;;;;;;16.70;15.00;;;;;;;;;;5069829;28;20020;-62
2023/12/12 02:17:12;;;;;;;16.73;15.02;;;;;;;;;;5068510;28;20020;-62
2023/12/12 02:19:38;;;;;;;19.00;17.13;;;;;;;;;;5069512;28;20093;-62
2023/12/12 02:22:04;;;;;;;16.48;14.77;;;;;;;;;;5069384;28;20020;-62
2023/12/12 02:24:30;;;;;;;18.10;16.30;;;;;;;;;;5069240;28;20021;-64
2023/12/12 02:26:57;;;;;;;16.65;14.95;;;;;;;;;;5068801;28;20461;-61
2023/12/12 02:29:23;;;;;;;17.40;15.70;;;;;;;;;;5069597;28;20060;-61
2023/12/12 02:31:49;;;;;;;16.85;15.15;;;;;;;;;;5067711;28;20066;-62
2023/12/12 02:34:15;;;;;;;17.15;15.45;;;;;;;;;;5071856;28;20040;-62
2023/12/12 02:36:40;;;;;;;17.98;16.17;;;;;;;;;;5071949;28;20028;-62
2023/12/12 02:39:07;;;;;;;18.65;16.85;;;;;;;;;;5073186;28;20025;-62
2023/12/12 02:41:33;;;;;;;20.48;18.42;;;;;;;;;;5071653;28;20052;-62
2023/12/12 02:43:59;;;;;;;17.15;15.45;;;;;;;;;;5072860;28;20028;-62
2023/12/12 02:46:25;;;;;;;17.17;15.48;;;;;;;;;;5073465;28;20035;-62
2023/12/12 02:48:51;;;;;;;17.25;15.55;;;;;;;;;;5073402;28;20029;-63
2023/12/12 02:51:17;;;;;;;18.10;16.30;;;;;;;;;;5072151;28;20024;-62
2023/12/12 02:53:43;;;;;;;17.35;15.65;;;;;;;;;;5073802;28;20016;-63
2023/12/12 02:56:09;;;;;;;17.52;15.82;;;;;;;;;;5074512;28;20024;-62
2023/12/12 02:58:35;;;;;;;19.65;17.75;;;;;;;;;;5073807;28;20143;-63
2023/12/12 03:01:01;;;;;;;17.67;15.98;;;;;;;;;;5073794;28;20056;-62
2023/12/12 03:03:27;;;;;;;17.90;16.13;;;;;;;;;;5073930;28;20107;-62
2023/12/12 03:05:53;;;;;;;17.77;16.08;;;;;;;;;;5072712;28;20108;-62
2023/12/12 03:08:19;;;;;;;18.15;16.35;;;;;;;;;;5073418;28;20051;-61
2023/12/12 03:10:46;;;;;;;17.55;15.85;;;;;;;;;;5072783;28;20048;-62
2023/12/12 03:13:12;;;;;;;17.67;15.98;;;;;;;;;;5071929;28;20028;-63
2023/12/12 03:15:38;;;;;;;17.50;15.80;;;;;;;;;;5072961;28;20525;-63
2023/12/12 03:18:04;;;;;;;20.60;17.45;;;;;;;;;;5072822;28;20048;-63
2023/12/12 03:20:30;;;;;;;17.50;15.80;;;;;;;;;;5074908;28;20042;-63
2023/12/12 03:22:56;;;;;;;18.10;16.30;;;;;;;;;;5073788;28;20039;-63
2023/12/12 03:25:22;;;;;;;16.95;15.25;;;;;;;;;;5072187;28;20024;-63
2023/12/12 03:27:48;;;;;;;17.13;15.43;;;;;;;;;;5072080;28;20170;-63
2023/12/12 03:30:14;;;;;;;17.13;15.43;;;;;;;;;;5071774;28;20029;-63
2023/12/12 03:32:40;;;;;;;17.20;15.50;;;;;;;;;;5071962;28;20437;-63
2023/12/12 03:35:06;;;;;;;16.95;15.25;;;;;;;;;;5072579;28;20029;-63
2023/12/12 03:37:34;;;;;;;17.10;15.40;;;;;;;;;;5071855;28;20064;-62
2023/12/12 03:40:00;;;;;;;17.10;15.40;;;;;;;;;;5071714;28;20078;-63
2023/12/12 03:42:26;;;;;;;17.00;15.30;;;;;;;;;;5087809;28;20031;-63
2023/12/12 03:44:52;;;;;;;16.67;14.98;;;;;;;;;;5070757;28;20044;-63
2023/12/12 03:47:18;;;;;;;18.42;15.70;;;;;;;;;;5078662;28;20066;-63
2023/12/12 03:49:44;;;;;;;16.52;14.82;;;;;;;;;;5072717;28;20024;-63
2023/12/12 03:52:10;;;;;;;16.58;14.88;;;;;;;;;;5071906;28;20117;-63
2023/12/12 03:54:36;;;;;;;16.65;14.95;;;;;;;;;;5070784;28;20021;-63
2023/12/12 03:57:03;;;;;;;16.35;14.65;;;;;;;;;;5071757;28;20021;-63
2023/12/12 03:59:29;;;;;;;16.13;14.43;;;;;;;;;;5071840;28;20497;-63
2023/12/12 04:01:55;;;;;;;16.10;14.40;;;;;;;;;;5079443;28;20024;-63
2023/12/12 04:04:21;;;;;;;15.75;14.05;;;;;;;;;;5071282;28;20021;-63
2023/12/12 04:06:47;;;;;;;16.00;14.30;;;;;;;;;;5071357;28;20509;-62
2023/12/12 04:09:13;;;;;;;16.38;14.68;;;;;;;;;;5069963;28;20033;-62
2023/12/12 04:11:39;;;;;;;17.15;14.32;;;;;;;;;;5071000;28;20477;-63
2023/12/12 04:14:05;;;;;;;16.20;14.50;;;;;;;;;;5076432;28;20046;-62
2023/12/12 04:16:31;;;;;;;15.88;14.18;;;;;;;;;;5082376;28;20099;-62
2023/12/12 04:18:57;;;;;;;15.98;14.27;;;;;;;;;;5069959;28;20095;-62
2023/12/12 04:21:24;;;;;;;16.00;14.30;;;;;;;;;;5078367;28;20107;-62
2023/12/12 04:23:50;;;;;;;15.70;14.00;;;;;;;;;;5071643;28;20058;-62
2023/12/12 04:26:16;;;;;;;16.00;14.30;;;;;;;;;;5071143;28;20033;-60
2023/12/12 04:28:42;;;;;;;15.52;13.82;;;;;;;;;;5073027;28;20054;-62
2023/12/12 04:31:13;;;;;;;16.05;14.35;;;;;;;;;;5076648;28;20088;-63
2023/12/12 04:33:39;;;;;;;15.40;13.65;;;;;;;;;;5087437;28;20464;-63
2023/12/12 04:36:06;;;;;;;15.30;13.60;;;;;;;;;;5079335;28;20031;-62
2023/12/12 04:38:35;;;;;;;15.25;13.52;;;;;;;;;;5070247;28;20068;-62
2023/12/12 04:41:05;;;;;;;15.07;13.20;;;;;;;;;;5070116;28;20020;-61
2023/12/12 04:43:31;;;;;;;15.00;13.02;;;;;;;;;;5087121;28;20020;-61
2023/12/12 04:45:57;;;;;;;17.48;15.77;;;;;;;;;;5090331;28;20134;-62
2023/12/12 04:48:23;;;;;;;15.20;13.27;;;;;;;;;;5090671;28;20050;-62
2023/12/12 04:50:49;;;;;;;15.30;13.48;;;;;;;;;;5090166;28;20485;-62
2023/12/12 04:53:16;;;;;;;15.10;13.23;;;;;;;;;;5090428;28;20031;-63
2023/12/12 04:55:42;;;;;;;15.10;13.05;;;;;;;;;;5071918;28;20020;-62
2023/12/12 04:58:08;;;;;;;15.43;13.73;;;;;;;;;;5090462;28;20022;-62
2023/12/12 05:00:34;;;;;;;15.23;13.60;;;;;;;;;;5090244;28;20016;-62
2023/12/12 05:03:00;;;;;;;15.30;13.60;;;;;;;;;;5090072;28;20023;-62
2023/12/12 05:05:26;;;;;;;15.27;13.52;;;;;;;;;;5072259;28;20038;-62
2023/12/12 05:07:52;;;;;;;15.45;13.75;;;;;;;;;;5090476;28;20086;-62
2023/12/12 05:10:18;;;;;;;15.20;13.35;;;;;;;;;;5075201;28;20413;-62
2023/12/12 05:12:44;;;;;;;15.20;13.25;;;;;;;;;;5069944;28;20104;-63
2023/12/12 05:15:10;;;;;;;15.18;13.20;;;;;;;;;;5069973;28;20127;-63
2023/12/12 05:17:36;;;;;;;15.40;13.23;;;;;;;;;;5069132;28;20028;-62
2023/12/12 05:20:03;;;;;;;14.88;12.40;;;;;;;;;;5070937;28;20028;-63
2023/12/12 05:22:29;;;;;;;14.77;12.15;;;;;;;;;;5068964;28;20028;-63
2023/12/12 05:24:55;;;;;;;14.90;11.63;;;;;;;;;;5091704;28;20027;-63
2023/12/12 05:27:21;;;;;;;14.63;11.50;;;;;;;;;;5073735;28;20024;-61
2023/12/12 05:29:47;;;;;;;14.40;11.10;;;;;;;;;;5091231;28;20032;-63
2023/12/12 05:32:13;;;;;;;14.27;10.90;;;;;;;;;;5091364;28;20427;-62
2023/12/12 05:34:39;;;;;;;14.25;10.70;;;;;;;;;;5090919;28;20077;-62
2023/12/12 05:37:05;;;;;;;14.35;10.93;;;;;;;;;;5072653;28;20066;-64
2023/12/12 05:39:31;;;;;;;14.20;10.57;;;;;;;;;;5090834;28;20024;-63
2023/12/12 05:41:57;;;;;;;14.27;10.80;;;;;;;;;;5090783;28;20470;-62
2023/12/12 05:44:23;;;;;;;14.38;11.05;;;;;;;;;;5090549;28;20115;-64
2023/12/12 05:46:50;;;;;;;14.43;11.13;;;;;;;;;;5072553;28;20080;-63
2023/12/12 05:49:16;;;;;;;14.50;11.40;;;;;;;;;;5068472;28;20029;-63
2023/12/12 05:51:43;;;;;;;14.60;11.48;;;;;;;;;;5068099;28;20053;-63
2023/12/12 05:54:12;;;;;;;14.45;11.18;;;;;;;;;;5069858;28;20379;-62
2023/12/12 05:56:45;;;;;;;14.60;11.50;;;;;;;;;;5069497;28;20020;-62
2023/12/12 05:59:14;;;;;;;14.52;11.40;;;;;;;;;;5069595;28;20016;-63
2023/12/12 06:01:40;;;;;;;14.60;11.70;;;;;;;;;;5069717;28;20428;-62
2023/12/12 06:04:07;;;;;;;14.57;11.48;;;;;;;;;;5070142;28;20025;-63
2023/12/12 06:06:33;;;;;;;14.40;10.98;;;;;;;;;;5069997;28;20107;-63
2023/12/12 06:09:00;;;;;;;14.60;11.50;;;;;;;;;;5086330;28;20028;-64
2023/12/12 06:11:26;;;;;;;14.50;11.40;;;;;;;;;;5093639;28;20035;-62
2023/12/12 06:13:52;;;;;;;14.60;11.50;;;;;;;;;;5093783;28;20020;-62
2023/12/12 06:16:18;;;;;;;14.50;11.30;;;;;;;;;;5094141;28;20043;-63
2023/12/12 06:18:44;;;;;;;14.57;11.50;;;;;;;;;;5093925;28;20102;-63
2023/12/12 06:21:10;;;;;;;14.57;11.57;;;;;;;;;;5075677;28;20039;-63
2023/12/12 06:23:36;;;;;;;14.57;11.43;;;;;;;;;;5094111;28;20058;-62
2023/12/12 06:26:03;;;;;;;14.57;11.30;;;;;;;;;;5094137;28;20020;-62
2023/12/12 06:28:29;;;;;;;15.02;12.27;;;;;;;;;;5076338;28;20024;-62
2023/12/12 06:30:55;;;;;;;14.50;11.27;;;;;;;;;;5093614;28;20397;-60
2023/12/12 06:33:24;;;;;;;15.85;12.43;;;;;;;;;;5094547;28;20039;-63
2023/12/12 06:35:50;;;;;;;14.50;11.18;;;;;;;;;;5094026;28;20866;-63
2023/12/12 06:38:16;;;;;;;14.38;10.90;;;;;;;;;;5094216;28;20107;-63
2023/12/12 06:40:42;;;;;;;14.10;10.20;;;;;;;;;;5075951;28;20051;-64
2023/12/12 06:43:08;;;;;;;14.05;10.05;;;;;;;;;;5094583;28;20048;-62
2023/12/12 06:45:34;;;;;;;14.10;10.20;;;;;;;;;;5076562;28;20473;-61
2023/12/12 06:48:00;;;;;;;14.00;9.90;;;;;;;;;;5072657;28;20028;-62
2023/12/12 06:50:27;;;;;;;13.93;9.65;;;;;;;;;;5073601;28;20028;-61
2023/12/12 06:52:53;;;;;;;14.00;9.95;;;;;;;;;;5073211;28;20071;-62
2023/12/12 06:55:19;;;;;;;14.05;10.00;;;;;;;;;;5073926;28;20026;-63
2023/12/12 06:57:45;;;;;;;14.10;10.27;;;;;;;;;;5074449;28;20035;-62
2023/12/12 07:00:11;;;;;;;14.15;10.32;;;;;;;;;;5073695;28;20501;-60
2023/12/12 07:02:37;;;;;;;14.13;10.40;;;;;;;;;;5073235;28;20031;-64
2023/12/12 07:05:07;;;;;;;14.18;10.35;;;;;;;;;;5086333;28;20051;-62
2023/12/12 07:07:33;;;;;;;14.20;10.52;;;;;;;;;;5085229;28;20180;-62
2023/12/12 07:09:59;;;;;;;14.05;10.07;;;;;;;;;;5093193;28;20028;-62
2023/12/12 07:12:25;;;;;;;14.15;10.27;;;;;;;;;;5077057;28;20024;-63
2023/12/12 07:14:54;;;;;;;14.18;10.50;;;;;;;;;;5092370;28;20077;-63
2023/12/12 07:17:20;;;;;;;14.10;10.27;;;;;;;;;;5071096;28;20482;-61
2023/12/12 07:19:46;;;;;;;14.02;10.20;;;;;;;;;;5072355;28;20062;-63
2023/12/12 07:22:12;;;;;;;14.10;10.35;;;;;;;;;;5072797;28;20536;-62
2023/12/12 07:24:40;;;;;;;14.50;11.10;;;;;;;;;;5082517;28;20029;-63
2023/12/12 07:27:06;;;;;;;14.00;9.88;;;;;;;;;;5070915;28;20032;-62
2023/12/12 07:29:33;;;;;;;14.30;10.52;;;;;;;;;;5070917;28;20138;-62
2023/12/12 07:31:59;;;;;;;14.13;10.30;;;;;;;;;;5075168;28;20682;-64
2023/12/12 07:34:25;;;;;;;14.32;10.95;;;;;;;;;;5076619;28;20016;-63
2023/12/12 07:36:51;;;;;;;14.23;10.60;;;;;;;;;;5081685;28;20064;-62
2023/12/12 07:39:28;;;;;;;14.30;10.70;;;;;;;;;;5072749;28;20029;-66
2023/12/12 07:41:56;;;;;;;14.30;10.73;;;;;;;;;;5072872;28;20108;-62
2023/12/12 07:44:23;;;;;;;14.30;10.70;;;;;;;;;;5081071;28;20040;-60
2023/12/12 07:46:49;;;;;;;14.30;10.60;;;;;;;;;;5072003;28;20048;-63
2023/12/12 07:49:15;;;;;;;14.20;10.68;;;;;;;;;;5072336;28;20029;-62
2023/12/12 07:51:41;;;;;;;14.25;10.93;;;;;;;;;;5070770;28;20051;-63
2023/12/12 07:54:07;;;;;;;14.50;11.60;;;;;;;;;;5071044;28;20032;-63
2023/12/12 07:56:33;;;;;;;14.43;11.23;;;;;;;;;;5072179;28;20437;-62
2023/12/12 07:58:59;;;;;;;14.63;11.80;;;;;;;;;;5072172;28;20021;-63
2023/12/12 08:01:25;;;;;;;14.38;11.05;;;;;;;;;;5071586;28;20051;-62
2023/12/12 08:03:51;;;;;;;14.40;11.07;;;;;;;;;;5075857;28;20074;-63
2023/12/12 08:06:18;;;;;;;14.30;10.90;;;;;;;;;;5074362;28;20028;-63
2023/12/12 08:08:44;;;;;;;15.57;13.77;;;;;;;;;;5091962;28;20028;-63
2023/12/12 08:11:13;;;;;;;14.48;11.20;;;;;;;;;;5073630;28;20062;-62
2023/12/12 08:13:39;;;;;;;14.30;10.93;;;;;;;;;;5082187;28;20038;-63
2023/12/12 08:16:06;;;;;;;14.50;11.40;;;;;;;;;;5072121;28;20091;-63
2023/12/12 08:18:32;;;;;;;14.45;11.20;;;;;;;;;;5071679;28;20078;-63
2023/12/12 08:20:58;;;;;;;14.35;10.95;;;;;;;;;;5071840;28;20100;-64
2023/12/12 08:23:24;;;;;;;14.38;11.00;;;;;;;;;;5071408;28;20024;-63
2023/12/12 08:25:50;;;;;;;14.35;10.80;;;;;;;;;;5071535;28;20551;-63
2023/12/12 08:28:16;;;;;;;14.40;11.10;;;;;;;;;;5071778;28;20028;-63
2023/12/12 08:30:43;;;;;;;14.32;10.98;;;;;;;;;;5069589;28;20108;-63
2023/12/12 08:33:09;;;;;;;14.30;10.63;;;;;;;;;;5071065;28;20047;-62
2023/12/12 08:35:36;;;;;;;14.27;10.75;;;;;;;;;;5071811;28;20040;-62
2023/12/12 08:38:02;;;;;;;14.30;10.82;;;;;;;;;;5070010;28;20070;-63
2023/12/12 08:40:28;;;;;;;14.38;11.15;;;;;;;;;;5079137;28;20428;-63
2023/12/12 08:42:54;;;;;;;14.50;11.27;;;;;;;;;;5083380;28;20078;-62
2023/12/12 08:45:20;;;;;;;14.50;11.43;;;;;;;;;;5073384;28;20031;-61
2023/12/12 08:47:46;;;;;;;14.70;11.80;;;;;;;;;;5089233;28;20062;-57
2023/12/12 08:50:12;;;;;;;14.60;11.63;;;;;;;;;;5089311;28;20051;-52
2023/12/12 08:52:38;;;;;;;14.60;11.70;;;;;;;;;;5089192;28;20496;-53
2023/12/12 08:55:05;;;;;;;14.70;11.73;;;;;;;;;;5089200;28;20028;-52
2023/12/12 08:57:31;;;;;;;14.45;11.25;;;;;;;;;;5089326;28;20024;-53
2023/12/12 08:59:57;;;;;;;14.50;11.20;;;;;;;;;;5089123;28;20016;-53
2023/12/12 09:02:23;;;;;;;15.05;12.55;;;;;;;;;;5089140;28;20111;-54
2023/12/12 09:04:49;;;;;;;15.25;13.02;;;;;;;;;;5088810;28;20083;-55
2023/12/12 09:07:15;;;;;;;14.55;11.50;;;;;;;;;;5082630;28;20446;-51
2023/12/12 09:09:41;;;;;;;14.60;11.50;;;;;;;;;;5083354;28;20035;-54
2023/12/12 09:12:08;;;;;;;14.57;11.50;;;;;;;;;;5068427;28;20024;-54
2023/12/12 09:14:34;;;;;;;14.40;11.00;;;;;;;;;;5068599;28;20028;-53
2023/12/12 09:17:00;;;;;;;14.40;11.15;;;;;;;;;;5068170;28;20029;-51
2023/12/12 09:19:26;;;;;;;14.40;11.18;;;;;;;;;;5068611;28;20039;-54
2023/12/12 09:21:54;;;;;;;14.90;12.30;;;;;;;;;;5068580;28;20035;-54
2023/12/12 09:24:20;;;;;;;14.50;11.27;;;;;;;;;;5068796;28;20150;-52
2023/12/12 09:26:46;;;;;;;14.30;10.65;;;;;;;;;;5068649;28;20039;-52
2023/12/12 09:29:12;;;;;;;14.38;11.02;;;;;;;;;;5068733;28;20056;-50
2023/12/12 09:31:38;;;;;;;14.27;10.70;;;;;;;;;;5076696;28;20116;-53
2023/12/12 09:34:04;;;;;;;14.30;10.73;;;;;;;;;;5068725;28;20072;-51
2023/12/12 09:36:30;;;;;;;14.30;10.60;;;;;;;;;;5068845;28;20481;-51
2023/12/12 09:38:57;;;;;;;14.10;10.15;;;;;;;;;;5070462;28;20088;-53
2023/12/12 09:41:24;;;;;;;14.25;10.55;;;;;;;;;;5071738;28;20039;-54
2023/12/12 09:43:51;;;;;;;14.10;10.20;;;;;;;;;;5068439;28;20037;-49
2023/12/12 09:46:17;;;;;;;13.98;10.10;;;;;;;;;;5068791;28;20032;-52
2023/12/12 09:48:47;;;;;;;13.90;9.60;;;;;;;;;;5068002;28;20096;-53
2023/12/12 09:51:17;;;;;;;14.00;9.90;;;;;;;;;;5067942;28;20029;-52
2023/12/12 09:53:46;;;;;;;13.85;9.52;;;;;;;;;;5078996;28;20081;-55
2023/12/12 09:56:15;;;;;;;13.90;9.60;;;;;;;;;;5068197;28;20731;-53
2023/12/12 09:58:41;;;;;;;13.93;9.57;;;;;;;;;;5069843;28;20031;-51
2023/12/12 10:01:08;;;;;;;13.88;9.30;;;;;;;;;;5075427;28;20116;-53
2023/12/12 10:03:34;;;;;;;13.60;8.90;;;;;;;;;;5068490;28;20047;-53
2023/12/12 10:06:03;;;;;;;13.70;9.10;;;;;;;;;;5070063;28;20509;-52
2023/12/12 10:08:29;;;;;;;13.85;9.10;;;;;;;;;;5072047;28;20379;-54
2023/12/12 10:10:55;;;;;;;13.57;8.52;;;;;;;;;;5076306;28;20017;-55
2023/12/12 10:13:22;;;;;;;13.27;7.90;;;;;;;;;;5083684;28;20039;-56
2023/12/12 10:15:48;;;;;;;13.32;7.93;;;;;;;;;;5088318;28;20456;-56
2023/12/12 10:18:14;;;;;;;13.30;7.90;;;;;;;;;;5088663;28;20028;-56
2023/12/12 10:20:40;;;;;;;13.40;7.90;;;;;;;;;;5088491;28;20093;-55
2023/12/12 10:23:06;;;;;;;13.32;7.93;;;;;;;;;;5088430;28;20028;-55
2023/12/12 10:25:34;;;;;;;13.38;8.05;;;;;;;;;;5088569;28;20027;-57
2023/12/12 10:28:00;;;;;;;13.13;7.70;;;;;;;;;;5088943;28;20046;-54
2023/12/12 10:30:26;;;;;;;13.32;7.78;;;;;;;;;;5070338;28;20050;-52
2023/12/12 10:32:54;;;;;;;13.02;7.60;;;;;;;;;;5070211;28;20028;-55
2023/12/12 10:35:24;;;;;;;12.55;7.30;;;;;;;;;;5073770;28;20033;-52
2023/12/12 10:37:50;;;;;;;12.48;7.28;;;;;;;;;;5067944;28;20151;-56
2023/12/12 10:40:16;;;;;;;12.48;7.25;;;;;;;;;;5067810;28;20126;-55
2023/12/12 10:42:43;;;;;;;13.10;7.60;;;;;;;;;;5078652;28;20033;-57
2023/12/12 10:45:13;;;;;;;12.43;7.25;;;;;;;;;;5066543;28;20025;-58
2023/12/12 10:47:45;;;;;;;11.77;6.90;;;;;;;;;;5067847;28;20025;-55
2023/12/12 10:50:14;;;;;;;12.27;7.10;;;;;;;;;;5067807;28;20024;-55
2023/12/12 10:52:40;;;;;;;13.00;7.60;;;;;;;;;;5068019;28;20028;-57
2023/12/12 10:55:08;;;;;;;13.35;7.85;;;;;;;;;;5071832;28;20110;-56
2023/12/12 10:57:35;;;;;;;13.07;7.87;;;;;;;;;;5072052;28;20039;-53
2023/12/12 11:00:11;;;;;;;13.63;8.80;;;;;;;;;;5082677;28;20104;-53
2023/12/12 11:02:37;;;;;;;13.70;8.90;;;;;;;;;;5073508;28;20039;-56
2023/12/12 11:05:04;;;;;;;13.75;9.02;;;;;;;;;;5091698;28;20517;-55
2023/12/12 11:07:30;;;;;;;13.65;8.90;;;;;;;;;;5081917;28;20021;-55
2023/12/12 11:09:56;;;;;;;13.65;8.90;;;;;;;;;;5071496;28;20025;-56
2023/12/12 11:12:23;;;;;;;13.75;9.07;;;;;;;;;;5071213;28;20162;-53
2023/12/12 11:14:49;;;;;;;13.75;9.00;;;;;;;;;;5071080;28;20033;-55
2023/12/12 11:17:15;;;;;;;13.80;9.10;;;;;;;;;;5053084;28;20107;-57
2023/12/12 11:19:41;;;;;;;13.57;8.80;;;;;;;;;;5071133;28;20025;-58
2023/12/12 11:22:07;;;;;;;13.65;8.88;;;;;;;;;;5070900;28;20141;-56
2023/12/12 11:24:56;;;;;;;13.73;8.98;;;;;;;;;;5071320;28;20478;-56
2023/12/12 11:27:22;;;;;;;13.77;9.05;;;;;;;;;;5060565;28;20043;-55
2023/12/12 11:29:48;;;;;;;13.55;8.70;;;;;;;;;;5052907;28;20021;-52
2023/12/12 11:32:21;;;;;;;13.52;8.43;;;;;;;;;;5070616;28;20129;-55
2023/12/12 11:34:47;;;;;;;13.48;8.30;;;;;;;;;;5071373;28;20020;-57
2023/12/12 11:37:13;;;;;;;13.40;8.13;;;;;;;;;;5071247;28;20035;-54
2023/12/12 11:39:42;;;;;;;13.40;8.10;;;;;;;;;;5070944;28;20455;-55
2023/12/12 11:42:29;;;;;;;13.55;8.65;;;;;;;;;;5070712;28;20521;-55
2023/12/12 11:44:57;;;;;;;13.30;8.35;;;;;;;;;;5053025;28;20052;-55
2023/12/12 11:47:28;;;;;;;13.60;8.68;;;;;;;;;;5077039;28;20030;-57
2023/12/12 11:50:13;;;;;;;13.70;8.90;;;;;;;;;;5080808;28;20027;-56
2023/12/12 11:52:39;;;;;;;13.73;8.98;;;;;;;;;;5057674;28;20422;-54
2023/12/12 11:55:05;;;;;;;13.80;9.25;;;;;;;;;;5071993;28;20016;-57
2023/12/12 11:57:31;;;;;;;13.77;9.20;;;;;;;;;;5070689;28;20107;-56
2023/12/12 12:00:01;;;;;;;13.82;9.40;;;;;;;;;;5070827;28;20028;-56
2023/12/12 12:02:30;;;;;;;13.95;9.70;;;;;;;;;;5070697;28;20032;-59
2023/12/12 12:04:57;;;;;;;13.82;9.38;;;;;;;;;;5069626;28;20052;-53
2023/12/12 12:07:23;;;;;;;13.90;9.50;;;;;;;;;;5079378;28;20047;-57
2023/12/12 12:09:50;;;;;;;13.82;9.40;;;;;;;;;;5091011;28;20043;-59
2023/12/12 12:12:19;;;;;;;13.90;9.63;;;;;;;;;;5090586;28;20561;-58
2023/12/12 12:14:45;;;;;;;14.00;9.80;;;;;;;;;;5090661;28;20024;-56
2023/12/12 12:17:11;;;;;;;13.95;9.80;;;;;;;;;;5090565;28;20047;-55
2023/12/12 12:19:38;;;;;;;13.90;9.50;;;;;;;;;;5080743;28;20020;-52
2023/12/12 12:22:04;;;;;;;13.88;9.40;;;;;;;;;;5061340;28;20059;-56
2023/12/12 12:24:30;;;;;;;13.80;9.20;;;;;;;;;;5079193;28;20080;-54
2023/12/12 12:26:57;;;;;;;13.88;9.35;;;;;;;;;;5081002;28;20024;-57
2023/12/12 12:29:23;;;;;;;13.88;9.40;;;;;;;;;;5061360;28;20059;-54
2023/12/12 12:31:49;;;;;;;13.93;9.60;;;;;;;;;;5078839;28;20066;-56
2023/12/12 12:34:19;;;;;;;14.15;10.20;;;;;;;;;;5081471;28;20094;-56
2023/12/12 12:36:48;;;;;;;14.40;10.80;;;;;;;;;;5079653;28;20036;-56
2023/12/12 12:39:15;;;;;;;14.50;10.77;;;;;;;;;;5078375;28;20482;-57
2023/12/12 12:41:43;;;;;;;14.20;10.35;;;;;;;;;;5069309;28;20399;-57
2023/12/12 12:44:09;;;;;;;14.20;10.30;;;;;;;;;;5069695;28;20039;-52
2023/12/12 12:46:35;;;;;;;14.25;10.50;;;;;;;;;;5069637;28;20028;-59
2023/12/12 12:49:01;;;;;;;14.30;10.55;;;;;;;;;;5069398;28;20024;-56
2023/12/12 12:51:27;;;;;;;14.10;10.02;;;;;;;;;;5069712;28;20028;-57
2023/12/12 12:53:53;;;;;;;14.32;10.63;;;;;;;;;;5069527;28;20467;-58
2023/12/12 12:56:21;;;;;;;14.18;10.32;;;;;;;;;;5069548;28;20028;-56
2023/12/12 12:58:46;;;;;;;14.20;10.25;;;;;;;;;;5069578;28;20067;-60
2023/12/12 13:01:12;;;;;;;14.15;10.18;;;;;;;;;;5051144;28;20055;-55
2023/12/12 13:03:38;;;;;;;14.30;10.60;;;;;;;;;;5069026;28;20027;-57
2023/12/12 13:06:05;;;;;;;14.20;10.50;;;;;;;;;;5069033;28;20144;-58
2023/12/12 13:08:31;;;;;;;14.25;10.50;;;;;;;;;;5068360;28;20324;-53
2023/12/12 13:10:57;;;;;;;14.23;10.55;;;;;;;;;;5069126;28;20486;-57
2023/12/12 13:13:23;;;;;;;14.27;10.50;;;;;;;;;;5070608;28;20108;-57
2023/12/12 13:15:49;;;;;;;14.23;10.40;;;;;;;;;;5069847;28;20490;-55
2023/12/12 13:18:17;;;;;;;14.07;10.02;;;;;;;;;;5069343;28;20402;-59
2023/12/12 13:20:45;;;;;;;13.98;9.77;;;;;;;;;;5067529;28;20178;-56
2023/12/12 13:23:11;;;;;;;14.15;10.10;;;;;;;;;;5069137;28;20051;-56
2023/12/12 13:25:37;;;;;;;14.02;10.00;;;;;;;;;;5068802;28;20033;-54
2023/12/12 13:28:03;;;;;;;14.10;9.90;;;;;;;;;;5068627;28;20042;-52
2023/12/12 13:30:29;;;;;;;14.15;10.15;;;;;;;;;;5068416;28;20056;-57
2023/12/12 13:32:55;;;;;;;14.05;9.98;;;;;;;;;;5068549;28;20043;-56
2023/12/12 13:35:22;;;;;;;14.10;10.10;;;;;;;;;;5067299;28;20509;-56
2023/12/12 13:37:48;;;;;;;13.98;9.85;;;;;;;;;;5068390;28;20029;-53
2023/12/12 13:40:14;;;;;;;14.10;10.00;;;;;;;;;;5068841;28;20029;-57
2023/12/12 13:42:40;;;;;;;14.07;10.00;;;;;;;;;;5068333;28;20029;-56
2023/12/12 13:45:07;;;;;;;13.93;9.75;;;;;;;;;;5074074;28;20052;-57
2023/12/12 13:47:33;;;;;;;14.00;9.77;;;;;;;;;;5077437;28;20071;-55
2023/12/12 13:50:00;;;;;;;13.90;9.63;;;;;;;;;;5071944;28;20024;-61
2023/12/12 13:52:28;;;;;;;13.88;9.55;;;;;;;;;;5075003;28;20020;-56
2023/12/12 13:54:55;;;;;;;13.90;9.52;;;;;;;;;;5069766;28;20043;-57
2023/12/12 13:57:22;;;;;;;13.80;9.18;;;;;;;;;;5069028;28;20025;-57
2023/12/12 13:59:48;;;;;;;13.95;9.60;;;;;;;;;;5067059;28;20109;-57
2023/12/12 14:02:14;;;;;;;14.10;10.10;;;;;;;;;;5073854;28;20032;-55
2023/12/12 14:04:40;;;;;;;14.07;9.90;;;;;;;;;;5078951;28;20062;-56
2023/12/12 14:07:06;;;;;;;14.18;10.00;;;;;;;;;;5072935;28;20028;-55
2023/12/12 14:09:32;;;;;;;13.82;9.32;;;;;;;;;;5080117;28;20020;-59
2023/12/12 14:12:01;;;;;;;13.82;9.30;;;;;;;;;;5068129;28;20079;-54
2023/12/12 14:14:27;;;;;;;13.82;9.30;;;;;;;;;;5068666;28;20050;-53
2023/12/12 14:16:53;;;;;;;13.68;8.90;;;;;;;;;;5077053;28;20119;-57